EmailTwitter


Observations de surface / France / LFMK (07635)

Régions: Québec | Canada | États-Unis | Europe | France | UK | Ailleurs
Station
Affichage
Infos & localisation pour LFMK (07635) | Aide pour décoder les METARs

Observations prises le 2019-12-16 à 02H30 UTC à CARCASSONNE/SALV, FR (LFMK)

Etat du ciel: couvert.

Température: 12.0 Celsius

Point de rosée: 11.0 Celsius

Humidité relative: 94%

Facteur vent: 9.

Vents: Est à 33 km/h ou 18 noeuds.

Pression au niveau moyen de la mer: 100.80 kilopascals.

Visibilité horizontale: 6.21 milles terrestres ou 9.94 kilomètres.

Hauteur du plafond: 274 mètres ( 900 pieds ).

Observation METAR:

LFMK 160230Z AUTO 08018KT 9999 OVC009 12/11 Q1008 =